createdAt,value
2019-02-16T00:01:43.295Z,100683.52
2019-02-16T00:04:09.173Z,100686.22
2019-02-16T00:06:35.194Z,100679.22
2019-02-16T00:09:01.106Z,100675.94
2019-02-16T00:11:26.974Z,100676.09
2019-02-16T00:13:53.050Z,100661.63
2019-02-16T00:16:18.886Z,100649.80
2019-02-16T00:18:44.776Z,100639.30
2019-02-16T00:21:10.733Z,100639.36
2019-02-16T00:23:36.622Z,100646.13
2019-02-16T00:26:02.604Z,100651.52
2019-02-16T00:28:28.660Z,100646.28
2019-02-16T00:30:54.587Z,100636.23
2019-02-16T00:33:20.588Z,100621.77
2019-02-16T00:35:46.674Z,100619.61
2019-02-16T00:38:12.518Z,100615.23
2019-02-16T00:40:38.420Z,100612.25
2019-02-16T00:43:04.570Z,100612.75
2019-02-16T00:45:30.536Z,100612.36
2019-02-16T00:47:56.407Z,100609.39
2019-02-16T00:50:22.547Z,100607.64
2019-02-16T00:52:48.409Z,100600.26
2019-02-16T00:55:14.287Z,100594.16
2019-02-16T00:57:40.487Z,100593.80
2019-02-16T01:00:08.083Z,100578.07
2019-02-16T01:02:33.960Z,100579.05
2019-02-16T01:04:59.977Z,100576.53
2019-02-16T01:07:25.876Z,100572.67
2019-02-16T01:09:51.743Z,100561.78
2019-02-16T01:12:17.835Z,100564.05
2019-02-16T01:14:43.788Z,100559.26
2019-02-16T01:17:09.659Z,100562.39
2019-02-16T01:19:35.888Z,100569.44
2019-02-16T01:22:01.742Z,100555.47
2019-02-16T01:24:27.619Z,100552.94
2019-02-16T01:26:53.567Z,100549.48
2019-02-16T01:29:19.590Z,100546.90
2019-02-16T01:31:45.448Z,100548.44
2019-02-16T01:34:11.580Z,100539.81
2019-02-16T01:36:37.460Z,100532.34
2019-02-16T01:39:04.497Z,100510.41
2019-02-16T01:41:30.576Z,100484.05
2019-02-16T01:43:56.428Z,100478.34
2019-02-16T01:46:22.318Z,100475.77
2019-02-16T01:48:48.427Z,100483.67
2019-02-16T01:51:14.308Z,100486.84
2019-02-16T01:53:40.170Z,100471.92
2019-02-16T01:56:06.235Z,100472.52
2019-02-16T01:58:32.097Z,100462.47
2019-02-16T02:00:58.079Z,100450.55
2019-02-16T02:03:24.121Z,100447.09
2019-02-16T02:05:50.110Z,100437.59
2019-02-16T02:08:15.963Z,100432.81
2019-02-16T02:10:41.988Z,100425.45
2019-02-16T02:13:07.973Z,100425.45
2019-02-16T02:15:33.856Z,100419.75
2019-02-16T02:17:59.970Z,100420.67
2019-02-16T02:20:25.879Z,100411.08
2019-02-16T02:22:51.865Z,100391.31
2019-02-16T02:25:17.894Z,100369.84
2019-02-16T02:27:43.762Z,100350.06
2019-02-16T02:30:09.726Z,100336.08
2019-02-16T02:32:35.871Z,100351.55
2019-02-16T02:35:01.899Z,100360.50
2019-02-16T02:37:27.875Z,100349.53
2019-02-16T02:39:54.017Z,100333.34
2019-02-16T02:42:20.004Z,100323.24
2019-02-16T02:44:45.875Z,100317.53
2019-02-16T02:47:12.038Z,100268.38
2019-02-16T02:49:37.883Z,100302.70
2019-02-16T02:52:03.888Z,100300.56
2019-02-16T02:54:29.888Z,100280.59
2019-02-16T02:56:55.873Z,100280.17
2019-02-16T02:59:21.709Z,100283.09
2019-02-16T03:01:48.150Z,100264.82
2019-02-16T03:04:14.045Z,100253.47
2019-02-16T03:06:39.986Z,100249.47
2019-02-16T03:09:06.112Z,100237.61
2019-02-16T03:11:31.983Z,100249.08
2019-02-16T03:13:58.200Z,100247.92
2019-02-16T03:16:26.120Z,100254.20
2019-02-16T03:18:51.921Z,100256.55
2019-02-16T03:21:17.786Z,100255.84
2019-02-16T03:23:43.851Z,100250.25
2019-02-16T03:26:26.877Z,100244.56
2019-02-16T03:29:09.848Z,100236.61
2019-02-16T03:31:54.303Z,100231.66
2019-02-16T03:34:22.253Z,100222.33
2019-02-16T03:37:06.449Z,100210.42
2019-02-16T03:39:32.986Z,100205.21
2019-02-16T15:08:19.586Z,100002.70
2019-02-16T15:10:45.420Z,100007.30
2019-02-16T15:13:11.282Z,100017.97
2019-02-16T15:15:37.254Z,100009.73
2019-02-16T15:18:03.875Z,100021.81
2019-02-16T15:20:29.884Z,100005.47
2019-02-16T15:22:55.940Z,100014.89
2019-02-16T15:25:21.741Z,100002.66
2019-02-16T15:27:47.615Z,100006.41
2019-02-16T15:30:14.996Z,99999.66
2019-02-16T15:32:40.958Z,100005.58
2019-02-16T15:35:07.751Z,99998.66
2019-02-16T15:37:33.811Z,100003.25
2019-02-16T15:39:59.707Z,100010.02
2019-02-16T15:42:25.573Z,99996.01
2019-02-16T15:44:51.603Z,100001.91
2019-02-16T15:47:17.471Z,99998.10
2019-02-16T15:49:43.353Z,99995.32
2019-02-16T15:52:09.309Z,100003.87
2019-02-16T15:54:35.182Z,100006.59
2019-02-16T15:57:01.144Z,99988.23
2019-02-16T15:59:34.992Z,99996.25
2019-02-16T16:01:54.946Z,99992.61
2019-02-16T16:04:21.577Z,99992.28
2019-02-16T16:06:47.630Z,99997.73
2019-02-16T16:09:27.491Z,99991.84
2019-02-16T16:12:01.413Z,99986.59
2019-02-16T16:14:35.208Z,99982.53
2019-02-16T16:17:03.125Z,99989.83
2019-02-16T16:19:47.260Z,99997.00
2019-02-16T16:22:31.732Z,99991.38
2019-02-16T16:25:15.860Z,99995.05
2019-02-16T16:27:58.908Z,99990.22
2019-02-16T16:30:32.469Z,99996.59
2019-02-16T16:33:16.908Z,100001.24
2019-02-16T16:35:50.330Z,99997.51
2019-02-16T16:38:18.191Z,99995.80
2019-02-16T16:41:03.987Z,100001.62
2019-02-16T16:43:37.806Z,99996.41
2019-02-16T16:46:13.614Z,100006.19
2019-02-16T16:48:56.348Z,100000.53
2019-02-16T16:51:32.733Z,99999.81
2019-02-16T16:54:00.852Z,100027.17
2019-02-16T16:56:31.300Z,100019.84
2019-02-16T16:59:17.331Z,100018.67
2019-02-16T17:02:01.414Z,100005.54
2019-02-16T17:04:32.252Z,100002.52
2019-02-16T17:07:05.633Z,100013.95
2019-02-16T17:09:49.747Z,100015.88
2019-02-16T17:12:23.250Z,100011.13
2019-02-16T17:15:00.214Z,100006.40
2019-02-16T17:17:44.595Z,99993.27
2019-02-16T17:20:12.521Z,99995.56
2019-02-16T17:22:42.940Z,99994.73
2019-02-16T17:25:13.327Z,99991.30
2019-02-16T17:27:44.133Z,99981.72
2019-02-16T17:30:14.530Z,99979.56
2019-02-16T17:32:42.311Z,99997.71
2019-02-16T17:35:22.198Z,99999.90
2019-02-16T17:37:49.964Z,100010.16
2019-02-16T17:40:30.024Z,100020.37
2019-02-16T17:42:57.807Z,100026.22
2019-02-16T17:45:34.486Z,100033.34
2019-02-16T17:48:02.229Z,100025.03
2019-02-16T17:50:35.813Z,100032.16
2019-02-16T17:53:09.519Z,100045.75
2019-02-16T17:55:55.812Z,100036.99
2019-02-16T17:58:23.679Z,100044.50
2019-02-16T18:00:57.188Z,100037.14
2019-02-16T18:03:30.706Z,100030.13
2019-02-16T18:05:58.669Z,100031.06
2019-02-16T18:08:41.198Z,100038.59
2019-02-16T18:11:09.203Z,100050.55
2019-02-16T18:13:55.082Z,100066.11
2019-02-16T18:16:23.044Z,100071.95
2019-02-16T18:18:59.742Z,100064.94
2019-02-16T18:21:27.569Z,100069.77
2019-02-16T18:24:01.379Z,100070.73
2019-02-16T18:26:41.664Z,100070.80
2019-02-16T18:29:15.262Z,100076.95
2019-02-16T18:31:55.256Z,100074.38
2019-02-16T18:34:25.995Z,100075.64
2019-02-16T18:36:53.861Z,100083.69
2019-02-16T18:39:37.396Z,100081.64
2019-02-16T18:42:14.001Z,100090.11
2019-02-16T18:44:59.789Z,100077.82
2019-02-16T18:47:27.556Z,100084.48
2019-02-16T18:50:07.512Z,100077.89
2019-02-16T18:52:44.011Z,100068.20
2019-02-16T18:55:11.970Z,100096.84
2019-02-16T18:57:48.724Z,100098.69
2019-02-16T19:00:31.634Z,100095.11
2019-02-16T19:02:59.457Z,100065.73
2019-02-16T19:05:30.057Z,100089.52
2019-02-16T19:08:14.584Z,100090.52
2019-02-16T19:10:42.345Z,100087.81
2019-02-16T19:13:13.365Z,100098.65
2019-02-16T19:15:57.808Z,100108.72
2019-02-16T19:18:25.574Z,100097.39
2019-02-16T19:20:53.340Z,100096.14
2019-02-16T19:23:21.339Z,100100.23
2019-02-16T19:25:49.123Z,100091.52
2019-02-16T19:28:26.132Z,100092.91
2019-02-16T19:30:59.752Z,100083.25
2019-02-16T19:33:30.277Z,100093.04
2019-02-16T19:36:03.628Z,100106.30
2019-02-16T19:38:37.438Z,100104.17
2019-02-16T19:41:16.902Z,100096.39
2019-02-16T19:43:44.866Z,100098.65
2019-02-16T19:46:15.262Z,100102.61
2019-02-16T19:48:43.222Z,100095.14
2019-02-16T19:51:14.089Z,100050.70
2019-02-16T19:53:44.508Z,100086.11
2019-02-16T19:56:12.276Z,100087.05
2019-02-16T19:58:40.170Z,100083.92
2019-02-16T20:01:22.660Z,100087.42
2019-02-16T20:03:56.162Z,100094.02
2019-02-16T20:06:26.561Z,100088.43
2019-02-16T20:09:03.546Z,100097.73
2019-02-16T20:11:40.068Z,100119.66
2019-02-16T20:14:24.771Z,100110.50
2019-02-16T20:17:04.400Z,100127.70
2019-02-16T20:19:48.839Z,100146.23
2019-02-16T20:22:22.274Z,100158.97
2019-02-16T20:25:06.348Z,100153.76
2019-02-16T20:27:39.955Z,100159.09
2019-02-16T20:30:14.695Z,100153.89
2019-02-16T20:32:54.476Z,100178.07
2019-02-16T20:35:22.326Z,100163.56
2019-02-16T20:37:50.094Z,100160.41
2019-02-16T20:40:17.880Z,100157.39
2019-02-16T20:42:51.639Z,100149.61
2019-02-16T20:45:28.195Z,100158.03
2019-02-16T20:47:56.842Z,100168.23
2019-02-16T20:50:30.558Z,100155.10
2019-02-16T20:53:14.769Z,100159.55
2019-02-16T20:55:51.362Z,100184.66
2019-02-16T20:58:22.166Z,100176.80
2019-02-16T21:00:59.065Z,100190.44
2019-02-16T21:03:29.647Z,100204.43
2019-02-16T21:06:03.212Z,100208.45
2019-02-16T21:08:31.068Z,100191.43
2019-02-16T21:11:04.486Z,100218.31
2019-02-16T21:13:32.362Z,100222.33
2019-02-16T21:16:12.159Z,100228.11
2019-02-16T21:18:46.015Z,100236.89
2019-02-16T21:21:16.386Z,100245.19
2019-02-16T21:23:44.178Z,100236.77
2019-02-16T21:26:14.679Z,100242.55
2019-02-16T21:28:42.440Z,100245.19
2019-02-16T21:31:18.196Z,100242.67
2019-02-16T21:33:46.076Z,100236.62
2019-02-16T21:36:13.850Z,100231.34
2019-02-16T21:38:47.501Z,100234.05
2019-02-16T21:41:31.878Z,100242.46
2019-02-16T21:44:02.651Z,100252.55
2019-02-16T21:46:42.473Z,100254.00
2019-02-16T21:49:16.434Z,100260.64
2019-02-16T21:51:46.758Z,100272.45
2019-02-16T21:54:14.502Z,100279.09
2019-02-16T21:56:45.449Z,100284.81
2019-02-16T21:59:19.110Z,100285.74
2019-02-16T22:01:48.732Z,100297.55
2019-02-16T22:04:33.173Z,100305.90
2019-02-16T22:07:03.944Z,100299.37
2019-02-16T22:09:34.572Z,100293.23
2019-02-16T22:12:02.348Z,100306.02
2019-02-16T22:14:28.396Z,100304.27
2019-02-16T22:16:54.419Z,100314.82
2019-02-16T22:19:20.272Z,100320.96
2019-02-16T22:21:46.240Z,100330.61
2019-02-16T22:24:12.170Z,100334.56
2019-02-16T22:26:38.152Z,100335.83
2019-02-16T22:29:04.152Z,100352.95
2019-02-16T22:31:30.159Z,100348.58
2019-02-16T22:33:56.032Z,100351.64
2019-02-16T22:36:21.954Z,100358.73
2019-02-16T22:38:47.851Z,100362.23
2019-02-16T22:41:13.724Z,100357.86
2019-02-16T22:43:39.791Z,100378.89
2019-02-16T22:46:05.671Z,100398.33
2019-02-16T22:48:31.509Z,100387.19
2019-02-16T22:50:57.541Z,100394.38
2019-02-16T22:53:23.431Z,100396.53
2019-02-16T22:55:49.383Z,100399.16
2019-02-16T22:58:15.450Z,100398.77
2019-02-16T23:00:42.142Z,100404.91
2019-02-16T23:03:07.991Z,100397.45
2019-02-16T23:05:34.152Z,100403.66
2019-02-16T23:08:00.081Z,100403.70
2019-02-16T23:10:26.034Z,100408.98
2019-02-16T23:12:52.011Z,100361.78
2019-02-16T23:15:17.950Z,100426.16
2019-02-16T23:17:44.159Z,100422.77
2019-02-16T23:20:10.592Z,100433.76
2019-02-16T23:22:36.506Z,100428.48
2019-02-16T23:25:02.994Z,100432.92
2019-02-16T23:27:29.105Z,100442.20
2019-02-16T23:29:54.989Z,100440.87
2019-02-16T23:32:20.978Z,100449.67
2019-02-16T23:34:46.933Z,100476.95
2019-02-16T23:37:12.797Z,100426.16
2019-02-16T23:39:38.669Z,100470.42
2019-02-16T23:42:04.996Z,100469.60
2019-02-16T23:44:30.868Z,100463.49
2019-02-16T23:46:56.749Z,100472.72
2019-02-16T23:49:22.700Z,100481.06
2019-02-16T23:51:48.556Z,100481.52
2019-02-16T23:54:14.454Z,100484.14
2019-02-16T23:56:40.447Z,100485.08
2019-02-16T23:59:06.292Z,100485.57
